Time;durP1;ratioP1;P1;durP2;ratioP2;P2;SDS_P1;SDS_P2;PMS_P1;PMS_P2;Temp;Humidity;BMP_temperature;BMP_pressure;BME280_temperature;BME280_humidity;BME280_pressure;Samples;Min_cycle;Max_cycle;Signal;HPM_P1;HPM_P2
2021/08/17 00:00:45;;;;;;;7.90;3.88;;;13.30;93.70;;;;;;4982433;28;20047;-86
2021/08/17 00:03:11;;;;;;;7.82;3.72;;;13.30;93.60;;;;;;4965358;28;20501;-87
2021/08/17 00:05:41;;;;;;;6.53;3.63;;;13.30;93.40;;;;;;4946014;28;20118;-86
2021/08/17 00:08:06;;;;;;;8.45;3.78;;;13.40;93.40;;;;;;4947287;28;20031;-86
2021/08/17 00:10:32;;;;;;;6.90;4.00;;;13.50;93.30;;;;;;4946071;28;20047;-86
2021/08/17 00:12:58;;;;;;;8.57;3.83;;;13.50;93.10;;;;;;4960155;28;20034;-87
2021/08/17 00:15:23;;;;;;;7.07;4.00;;;13.50;93.00;;;;;;4946995;28;20031;-87
2021/08/17 00:17:49;;;;;;;9.25;4.10;;;13.50;93.10;;;;;;4944908;28;20038;-86
2021/08/17 00:20:15;;;;;;;7.93;4.05;;;13.40;93.10;;;;;;4959212;28;20031;-86
2021/08/17 00:22:41;;;;;;;9.32;4.40;;;13.40;93.30;;;;;;4949736;28;20117;-87
2021/08/17 00:25:08;;;;;;;7.97;3.50;;;13.50;93.40;;;;;;4949151;28;20027;-87
2021/08/17 00:27:34;;;;;;;10.77;4.53;;;13.50;93.30;;;;;;4965512;28;20027;-86
2021/08/17 00:30:00;;;;;;;8.70;4.30;;;13.50;93.50;;;;;;4951477;28;20035;-86
2021/08/17 00:32:26;;;;;;;9.82;4.53;;;13.50;93.60;;;;;;4967394;28;20042;-85
2021/08/17 00:34:52;;;;;;;9.02;4.18;;;13.40;93.60;;;;;;4968815;28;20070;-85
2021/08/17 00:37:18;;;;;;;9.25;5.15;;;13.40;93.70;;;;;;4968054;28;20035;-85
2021/08/17 00:39:43;;;;;;;8.85;4.00;;;13.30;93.70;;;;;;4964490;28;20031;-86
2021/08/17 00:42:09;;;;;;;9.80;4.25;;;13.10;93.50;;;;;;4981432;28;20085;-85
2021/08/17 00:44:35;;;;;;;3.88;2.45;;;13.10;93.60;;;;;;4980728;28;20152;-86
2021/08/17 00:47:01;;;;;;;3.83;1.85;;;13.00;91.40;;;;;;4964439;28;20027;-85
2021/08/17 00:49:31;;;;;;;4.15;1.90;;;12.90;90.60;;;;;;4966333;28;20039;-84
2021/08/17 00:52:00;;;;;;;3.28;1.60;;;12.90;90.30;;;;;;4978615;28;20049;-83
2021/08/17 00:54:26;;;;;;;2.60;1.58;;;12.70;90.00;;;;;;4978660;28;20031;-86
2021/08/17 00:56:59;;;;;;;1.80;1.00;;;12.70;90.50;;;;;;4981340;28;20027;-86
2021/08/17 00:59:30;;;;;;;2.65;1.13;;;12.50;90.00;;;;;;4964718;28;20499;-85
2021/08/17 01:01:56;;;;;;;1.65;1.23;;;12.50;90.10;;;;;;4978852;28;20762;-84
2021/08/17 01:04:22;;;;;;;1.10;1.00;;;12.60;90.00;;;;;;4981261;28;20023;-83
2021/08/17 01:06:48;;;;;;;2.15;1.02;;;12.50;90.40;;;;;;4964356;28;20047;-83
2021/08/17 01:09:14;;;;;;;1.35;0.70;;;12.50;90.50;;;;;;4980064;28;20447;-84
2021/08/17 01:11:45;;;;;;;2.65;1.08;;;12.40;90.80;;;;;;4984112;28;20093;-83
2021/08/17 01:14:12;;;;;;;1.23;0.85;;;12.40;91.00;;;;;;4981209;28;20027;-83
2021/08/17 01:16:37;;;;;;;2.03;1.25;;;12.40;91.30;;;;;;4983768;28;20034;-83
2021/08/17 01:19:03;;;;;;;2.20;1.13;;;12.40;91.30;;;;;;4980417;28;20030;-84
2021/08/17 01:21:30;;;;;;;2.55;1.38;;;12.40;91.80;;;;;;4980471;28;20035;-84
2021/08/17 01:23:57;;;;;;;1.40;1.02;;;12.30;92.10;;;;;;4968576;28;20037;-84
2021/08/17 01:26:22;;;;;;;2.17;1.17;;;12.30;92.30;;;;;;4962477;28;20035;-84
2021/08/17 01:28:48;;;;;;;1.92;1.42;;;12.30;92.60;;;;;;4979639;28;20042;-84
2021/08/17 01:31:14;;;;;;;1.70;1.23;;;12.30;92.40;;;;;;4969762;28;20039;-84
2021/08/17 01:33:39;;;;;;;3.28;1.52;;;12.30;92.50;;;;;;4980706;28;20046;-84
2021/08/17 01:36:05;;;;;;;2.45;1.25;;;12.40;92.90;;;;;;4977536;28;20027;-84
2021/08/17 01:38:31;;;;;;;2.25;1.23;;;12.50;92.40;;;;;;4964931;28;20121;-84
2021/08/17 01:40:56;;;;;;;2.28;1.20;;;12.40;92.20;;;;;;4962804;28;20031;-84
2021/08/17 01:43:22;;;;;;;2.92;1.67;;;12.30;92.30;;;;;;4981671;28;20106;-84
2021/08/17 01:45:59;;;;;;;3.47;1.33;;;12.30;92.50;;;;;;4981362;28;20035;-84
2021/08/17 01:48:29;;;;;;;2.00;1.20;;;12.20;92.30;;;;;;4969023;28;20030;-84
2021/08/17 01:50:55;;;;;;;1.58;1.00;;;12.30;92.20;;;;;;4962598;28;20041;-82
2021/08/17 01:53:22;;;;;;;1.40;1.17;;;12.20;91.90;;;;;;4967758;28;20547;-83
2021/08/17 01:55:50;;;;;;;3.22;0.93;;;12.00;92.20;;;;;;4969254;28;20035;-83
2021/08/17 01:58:15;;;;;;;1.63;1.02;;;12.00;92.60;;;;;;4967492;28;20030;-83
2021/08/17 02:00:46;;;;;;;1.23;1.00;;;12.00;92.60;;;;;;4976115;28;20065;-83
2021/08/17 02:03:12;;;;;;;1.40;1.10;;;12.00;92.70;;;;;;4985195;28;20026;-83
2021/08/17 02:05:37;;;;;;;1.00;0.82;;;12.00;92.70;;;;;;4983730;28;20558;-83
2021/08/17 02:08:04;;;;;;;1.10;1.00;;;12.00;92.40;;;;;;4968784;28;20034;-84
2021/08/17 02:10:29;;;;;;;2.38;1.00;;;12.00;92.30;;;;;;4980404;28;20041;-83
2021/08/17 02:12:55;;;;;;;1.27;0.95;;;12.00;92.60;;;;;;4984839;28;20486;-83
2021/08/17 02:15:21;;;;;;;1.30;1.10;;;12.10;92.40;;;;;;4993214;28;20034;-83
2021/08/17 02:17:46;;;;;;;1.33;0.98;;;12.10;92.50;;;;;;4994633;28;20035;-83
2021/08/17 02:20:13;;;;;;;1.00;0.93;;;12.20;92.70;;;;;;4987174;28;20058;-83
2021/08/17 02:22:39;;;;;;;0.95;0.82;;;12.10;92.20;;;;;;4986478;28;20054;-83
2021/08/17 02:25:05;;;;;;;1.45;1.05;;;12.20;92.60;;;;;;4984160;28;20581;-83
2021/08/17 02:27:35;;;;;;;0.90;0.90;;;12.20;92.30;;;;;;4997790;28;20042;-83
2021/08/17 02:30:02;;;;;;;3.35;1.10;;;12.20;92.30;;;;;;4964613;28;20042;-83
2021/08/17 02:32:28;;;;;;;1.20;1.08;;;12.10;92.50;;;;;;4967985;28;20093;-84
2021/08/17 02:34:54;;;;;;;1.17;0.95;;;12.00;92.80;;;;;;4982237;28;20035;-83
2021/08/17 02:37:19;;;;;;;0.77;0.77;;;12.00;92.50;;;;;;4974604;28;20398;-83
2021/08/17 02:39:45;;;;;;;2.13;1.02;;;12.00;92.40;;;;;;4984051;28;20030;-84
2021/08/17 02:42:11;;;;;;;2.15;1.17;;;12.00;92.50;;;;;;4985344;28;20120;-83
2021/08/17 02:44:36;;;;;;;2.42;1.10;;;12.00;92.60;;;;;;4987157;28;20186;-83
2021/08/17 02:47:02;;;;;;;1.85;1.40;;;12.00;92.60;;;;;;4982917;28;20053;-83
2021/08/17 02:49:29;;;;;;;1.75;1.27;;;12.00;92.80;;;;;;4986181;28;20050;-83
2021/08/17 02:51:54;;;;;;;3.05;1.20;;;11.90;92.90;;;;;;4984269;28;20035;-83
2021/08/17 02:54:20;;;;;;;2.58;1.17;;;12.00;92.90;;;;;;4990428;28;20026;-83
2021/08/17 02:56:45;;;;;;;1.30;0.93;;;12.00;92.50;;;;;;4989464;28;20105;-83
2021/08/17 02:59:11;;;;;;;1.52;1.35;;;12.00;92.30;;;;;;4986536;28;20046;-83
2021/08/17 03:01:37;;;;;;;2.13;1.10;;;12.10;92.60;;;;;;4989808;28;20045;-83
2021/08/17 03:04:03;;;;;;;1.33;1.17;;;12.10;91.90;;;;;;4974158;28;20026;-83
2021/08/17 03:06:28;;;;;;;1.35;1.10;;;12.10;91.80;;;;;;4987967;28;20445;-83
2021/08/17 03:08:54;;;;;;;2.20;2.00;;;12.10;91.90;;;;;;4991231;28;20034;-83
2021/08/17 03:11:19;;;;;;;2.45;1.38;;;12.20;92.00;;;;;;4987395;28;20034;-82
2021/08/17 03:13:45;;;;;;;1.40;1.25;;;12.10;91.60;;;;;;4988080;28;20037;-83
2021/08/17 03:16:11;;;;;;;1.25;1.02;;;12.10;91.60;;;;;;4975296;28;20092;-83
2021/08/17 03:18:37;;;;;;;1.73;1.10;;;12.00;91.40;;;;;;4992146;28;20048;-83
2021/08/17 03:21:02;;;;;;;2.63;1.20;;;12.10;91.80;;;;;;4974530;28;20027;-83
2021/08/17 03:23:28;;;;;;;0.98;0.90;;;12.00;91.90;;;;;;4985286;28;20578;-83
2021/08/17 03:25:55;;;;;;;1.25;1.15;;;12.00;91.50;;;;;;4978269;28;20030;-83
2021/08/17 03:28:21;;;;;;;1.90;1.20;;;12.10;92.00;;;;;;4975185;28;20505;-83
2021/08/17 03:30:46;;;;;;;1.20;1.10;;;12.10;91.50;;;;;;4975516;28;20053;-84
2021/08/17 03:33:12;;;;;;;2.28;1.10;;;12.10;91.70;;;;;;4991759;28;20394;-83
2021/08/17 03:35:38;;;;;;;1.75;1.10;;;12.10;92.00;;;;;;4990844;28;20037;-84
2021/08/17 03:38:04;;;;;;;2.58;1.45;;;12.10;91.90;;;;;;4974386;28;20038;-84
2021/08/17 03:40:29;;;;;;;2.03;1.10;;;12.00;92.10;;;;;;4990957;28;20677;-84
2021/08/17 03:42:55;;;;;;;1.90;1.50;;;12.00;92.10;;;;;;4994193;28;20372;-84
2021/08/17 03:45:21;;;;;;;2.38;1.30;;;12.00;92.00;;;;;;4995943;28;20031;-84
2021/08/17 03:47:48;;;;;;;3.03;1.50;;;12.00;92.20;;;;;;4990453;28;20034;-84
2021/08/17 03:50:15;;;;;;;1.60;1.27;;;11.90;92.00;;;;;;4989659;28;20026;-84
2021/08/17 03:52:42;;;;;;;1.63;1.20;;;11.90;92.20;;;;;;4986336;28;20058;-84
2021/08/17 03:55:09;;;;;;;2.40;1.10;;;11.80;92.20;;;;;;4989856;28;20034;-84
2021/08/17 03:57:35;;;;;;;2.30;1.42;;;11.80;92.30;;;;;;4989821;28;20029;-84
2021/08/17 04:00:01;;;;;;;2.17;1.20;;;11.70;92.30;;;;;;4988470;28;20046;-84
2021/08/17 04:02:26;;;;;;;2.78;1.50;;;11.70;92.40;;;;;;4986860;28;20030;-84
2021/08/17 04:04:52;;;;;;;2.33;1.65;;;11.70;92.10;;;;;;4989147;28;20104;-84
2021/08/17 04:07:18;;;;;;;3.55;1.80;;;11.80;92.20;;;;;;4990494;28;20501;-83
2021/08/17 04:09:44;;;;;;;4.93;1.77;;;11.70;91.70;;;;;;4973679;28;20030;-83
2021/08/17 04:12:09;;;;;;;4.07;1.60;;;11.80;91.80;;;;;;4991063;28;20174;-83
2021/08/17 04:14:35;;;;;;;2.97;1.65;;;11.80;91.90;;;;;;4988278;28;20123;-83
2021/08/17 04:17:01;;;;;;;4.60;2.45;;;11.80;91.30;;;;;;4987252;28;20081;-83
2021/08/17 04:19:27;;;;;;;4.82;2.00;;;11.80;91.40;;;;;;4989193;28;20045;-82
2021/08/17 04:21:56;;;;;;;2.95;2.10;;;11.70;91.20;;;;;;4990017;28;20053;-83
2021/08/17 04:24:21;;;;;;;5.30;2.30;;;11.70;91.00;;;;;;4989414;28;20035;-83
2021/08/17 04:26:47;;;;;;;3.35;2.05;;;11.60;91.00;;;;;;4973631;28;20038;-83
2021/08/17 04:29:13;;;;;;;3.47;2.30;;;11.60;91.10;;;;;;4985477;28;20030;-83
2021/08/17 04:31:39;;;;;;;6.75;1.85;;;11.60;91.30;;;;;;4971890;28;20539;-83
2021/08/17 04:34:04;;;;;;;3.55;1.98;;;11.60;91.20;;;;;;4988599;28;20394;-83
2021/08/17 04:36:30;;;;;;;4.05;1.95;;;11.60;90.90;;;;;;4971508;28;20682;-83
2021/08/17 04:38:55;;;;;;;3.33;2.03;;;11.50;91.00;;;;;;4986893;28;20049;-83
2021/08/17 04:41:21;;;;;;;9.77;2.75;;;11.60;91.60;;;;;;4990002;28;20474;-83
2021/08/17 04:43:47;;;;;;;5.30;2.30;;;11.50;90.80;;;;;;4998581;28;20034;-83
2021/08/17 04:46:13;;;;;;;4.43;2.20;;;11.40;90.80;;;;;;4993628;28;20026;-83
2021/08/17 04:48:40;;;;;;;3.08;2.10;;;11.40;90.80;;;;;;5002144;28;20061;-83
2021/08/17 04:51:05;;;;;;;3.10;2.22;;;11.30;91.00;;;;;;4983971;28;20026;-83
2021/08/17 04:53:31;;;;;;;3.58;2.08;;;11.30;91.10;;;;;;4971011;28;20132;-83
2021/08/17 04:55:57;;;;;;;4.30;2.17;;;11.30;91.10;;;;;;4987303;28;20042;-83
2021/08/17 04:58:22;;;;;;;3.50;2.30;;;11.20;90.90;;;;;;4974009;28;20023;-82
2021/08/17 05:00:48;;;;;;;5.55;2.80;;;11.20;91.20;;;;;;4969980;28;20052;-83
2021/08/17 05:03:14;;;;;;;5.88;2.88;;;11.20;91.30;;;;;;4985934;28;20030;-83
2021/08/17 05:05:40;;;;;;;5.13;2.13;;;11.30;91.30;;;;;;5001435;28;20026;-83
2021/08/17 05:08:07;;;;;;;4.47;2.83;;;11.20;91.40;;;;;;4990343;28;20041;-82
2021/08/17 05:10:33;;;;;;;4.95;2.63;;;11.30;91.40;;;;;;4993401;28;20030;-83
2021/08/17 05:13:00;;;;;;;4.35;2.45;;;11.30;91.50;;;;;;4995043;28;20117;-83
2021/08/17 05:15:26;;;;;;;4.88;2.60;;;11.30;91.50;;;;;;4984418;28;20606;-83
2021/08/17 05:17:52;;;;;;;5.30;3.00;;;11.30;91.50;;;;;;4990556;28;20033;-83
2021/08/17 05:20:17;;;;;;;4.85;2.50;;;11.40;91.40;;;;;;4991907;28;20490;-83
2021/08/17 05:22:44;;;;;;;3.90;2.22;;;11.40;91.30;;;;;;4991424;28;20022;-82
2021/08/17 05:25:10;;;;;;;5.43;2.33;;;11.40;90.90;;;;;;4982933;28;20085;-83
2021/08/17 05:27:36;;;;;;;4.90;2.53;;;11.40;91.30;;;;;;4996440;28;20513;-83
2021/08/17 05:30:02;;;;;;;5.00;2.60;;;11.40;90.90;;;;;;4984311;28;20022;-83
2021/08/17 05:32:28;;;;;;;8.93;2.88;;;11.40;91.10;;;;;;4987014;28;20065;-83
2021/08/17 05:34:54;;;;;;;5.72;3.00;;;11.40;91.10;;;;;;4986576;28;20034;-83
2021/08/17 05:37:19;;;;;;;4.68;2.38;;;11.40;90.90;;;;;;4986329;28;20033;-83
2021/08/17 05:39:45;;;;;;;4.80;2.90;;;11.50;90.60;;;;;;4990278;28;20132;-83
2021/08/17 05:42:11;;;;;;;6.15;2.47;;;11.50;90.80;;;;;;4988367;28;20541;-82
2021/08/17 05:44:42;;;;;;;5.75;2.60;;;11.40;90.70;;;;;;4986211;28;20073;-83
2021/08/17 05:47:08;;;;;;;6.53;3.05;;;11.40;90.80;;;;;;4984719;28;20467;-83
2021/08/17 05:49:36;;;;;;;4.50;2.47;;;11.40;91.30;;;;;;4972968;28;20125;-83
2021/08/17 05:52:07;;;;;;;4.82;2.53;;;11.40;91.20;;;;;;4986610;28;20097;-83
2021/08/17 05:54:33;;;;;;;5.25;2.60;;;11.40;91.00;;;;;;4991234;28;20088;-82
2021/08/17 05:56:59;;;;;;;3.47;2.50;;;11.50;91.20;;;;;;4988125;28;20109;-83
2021/08/17 05:59:34;;;;;;;5.75;2.42;;;11.50;91.10;;;;;;4963133;28;20030;-83
2021/08/17 06:02:01;;;;;;;4.65;2.55;;;11.50;90.80;;;;;;4984973;28;20042;-84
2021/08/17 06:04:27;;;;;;;6.00;2.83;;;11.60;91.10;;;;;;4969555;28;20438;-83
2021/08/17 06:06:54;;;;;;;5.43;2.47;;;11.60;91.20;;;;;;4993747;28;20034;-83
2021/08/17 06:09:20;;;;;;;4.65;2.40;;;11.50;90.60;;;;;;4985713;28;20053;-84
2021/08/17 06:11:47;;;;;;;4.32;2.65;;;11.60;91.00;;;;;;4988628;28;20046;-83
2021/08/17 06:14:14;;;;;;;7.93;2.83;;;11.70;90.90;;;;;;4987894;28;20483;-83
2021/08/17 06:16:40;;;;;;;5.40;2.85;;;11.60;91.00;;;;;;4987352;28;20482;-83
2021/08/17 06:19:06;;;;;;;5.65;3.28;;;11.60;90.60;;;;;;4988026;28;20026;-83
2021/08/17 06:21:34;;;;;;;6.55;3.30;;;11.70;91.10;;;;;;4986381;28;20080;-83
2021/08/17 06:24:01;;;;;;;5.20;2.33;;;11.60;90.70;;;;;;4989362;28;20513;-82
2021/08/17 06:26:26;;;;;;;6.72;3.22;;;11.70;90.10;;;;;;4987067;28;20041;-83
2021/08/17 06:28:52;;;;;;;5.65;2.35;;;11.60;88.40;;;;;;4990680;28;20038;-83
2021/08/17 06:31:22;;;;;;;4.93;2.65;;;11.60;88.90;;;;;;4975009;28;20065;-82
2021/08/17 06:33:56;;;;;;;5.45;2.40;;;11.50;87.60;;;;;;4991415;28;20113;-83
2021/08/17 06:36:23;;;;;;;4.80;2.83;;;11.50;89.30;;;;;;4991724;28;20030;-83
2021/08/17 06:38:49;;;;;;;5.30;2.67;;;11.60;90.70;;;;;;4990425;28;20033;-83
2021/08/17 06:41:14;;;;;;;6.63;2.50;;;11.70;88.70;;;;;;4992060;28;20026;-84
2021/08/17 06:43:40;;;;;;;4.65;2.70;;;11.70;89.30;;;;;;4990125;28;20550;-84
2021/08/17 06:46:07;;;;;;;5.15;2.90;;;11.80;90.10;;;;;;4991354;28;20061;-83
2021/08/17 06:48:32;;;;;;;6.18;2.60;;;11.70;86.20;;;;;;4989742;28;20030;-84
2021/08/17 06:50:58;;;;;;;5.15;2.80;;;11.70;85.90;;;;;;4988933;28;20085;-83
2021/08/17 06:53:24;;;;;;;6.43;2.90;;;11.80;87.00;;;;;;4992932;28;20108;-84
2021/08/17 06:55:50;;;;;;;5.70;2.78;;;11.80;86.50;;;;;;4987738;28;20092;-84
2021/08/17 06:58:16;;;;;;;5.75;2.85;;;11.80;85.00;;;;;;4986735;28;20535;-84
2021/08/17 07:00:46;;;;;;;4.05;2.40;;;11.90;85.90;;;;;;4985352;28;20050;-83
2021/08/17 07:03:13;;;;;;;5.78;2.85;;;11.90;86.50;;;;;;4978268;28;20029;-84
2021/08/17 07:05:42;;;;;;;8.85;3.28;;;11.90;83.60;;;;;;4989939;28;20467;-83
2021/08/17 07:08:08;;;;;;;7.40;3.00;;;12.10;85.10;;;;;;4977303;28;20497;-84
2021/08/17 07:10:35;;;;;;;6.30;2.58;;;12.10;84.10;;;;;;4989806;28;20053;-83
2021/08/17 07:13:01;;;;;;;3.97;2.80;;;12.00;83.30;;;;;;4991426;28;20077;-84
2021/08/17 07:15:26;;;;;;;5.72;2.60;;;12.00;82.50;;;;;;4991709;28;20057;-83
2021/08/17 07:17:53;;;;;;;6.25;2.75;;;12.00;80.70;;;;;;4991720;28;20029;-84
2021/08/17 07:20:19;;;;;;;9.32;3.10;;;12.10;85.20;;;;;;4991912;28;20475;-84
2021/08/17 07:22:45;;;;;;;5.35;3.33;;;12.30;86.30;;;;;;4991110;28;20031;-83
2021/08/17 07:25:12;;;;;;;7.32;3.35;;;12.30;84.20;;;;;;4977202;28;20039;-84
2021/08/17 07:27:38;;;;;;;7.15;2.72;;;12.30;82.50;;;;;;4991944;28;20030;-84
2021/08/17 07:30:06;;;;;;;6.65;3.22;;;12.40;83.80;;;;;;4976698;28;20038;-84
2021/08/17 07:32:32;;;;;;;5.47;3.13;;;12.50;82.80;;;;;;4975526;28;20099;-83
2021/08/17 07:34:58;;;;;;;8.75;2.70;;;12.60;82.00;;;;;;4991374;28;20049;-84
2021/08/17 07:37:23;;;;;;;11.90;3.40;;;12.50;80.70;;;;;;4978697;28;20574;-85
2021/08/17 07:39:49;;;;;;;5.57;2.58;;;12.60;82.10;;;;;;4990242;28;20030;-83
2021/08/17 07:42:15;;;;;;;8.38;3.00;;;12.70;81.00;;;;;;4988597;28;20097;-84
2021/08/17 07:44:41;;;;;;;4.60;2.42;;;12.80;81.30;;;;;;4994315;28;20042;-83
2021/08/17 07:47:06;;;;;;;6.72;2.92;;;12.80;78.70;;;;;;4993860;28;20039;-84
2021/08/17 07:49:32;;;;;;;4.38;2.30;;;12.90;79.60;;;;;;4980401;28;20117;-84
2021/08/17 07:52:00;;;;;;;5.75;2.63;;;12.90;80.00;;;;;;4991676;28;20037;-81
2021/08/17 07:54:27;;;;;;;4.95;2.85;;;13.10;82.10;;;;;;4996248;28;20030;-82
2021/08/17 07:56:53;;;;;;;14.10;2.85;;;13.00;76.90;;;;;;4974527;28;20026;-83
2021/08/17 07:59:19;;;;;;;6.88;2.80;;;13.10;77.40;;;;;;4976545;28;20023;-82
2021/08/17 08:01:45;;;;;;;4.10;2.50;;;13.20;79.90;;;;;;4995391;28;20053;-83
2021/08/17 08:04:10;;;;;;;7.32;2.60;;;13.20;76.70;;;;;;4989985;28;20507;-83
2021/08/17 08:06:36;;;;;;;6.32;2.95;;;13.20;77.40;;;;;;4992936;28;20030;-82
2021/08/17 08:09:03;;;;;;;4.15;2.70;;;13.30;77.70;;;;;;4976231;28;20033;-83
2021/08/17 08:11:29;;;;;;;3.25;2.20;;;13.20;75.10;;;;;;4990850;28;20026;-82
2021/08/17 08:13:57;;;;;;;4.80;2.63;;;13.20;75.90;;;;;;4991946;28;20060;-82
2021/08/17 08:16:23;;;;;;;7.78;2.78;;;13.10;75.30;;;;;;4990420;28;20513;-82
2021/08/17 08:18:49;;;;;;;4.40;2.58;;;13.20;76.50;;;;;;4975940;28;20133;-83
2021/08/17 08:21:14;;;;;;;7.72;2.80;;;13.20;73.00;;;;;;4976933;28;20105;-83
2021/08/17 08:23:40;;;;;;;2.67;2.17;;;13.40;78.60;;;;;;4993258;28;20014;-82
2021/08/17 08:26:06;;;;;;;4.22;2.83;;;13.40;75.00;;;;;;4974770;28;20022;-81
2021/08/17 08:28:31;;;;;;;5.15;2.63;;;13.50;75.80;;;;;;4991501;28;20375;-81
2021/08/17 08:30:57;;;;;;;5.63;2.85;;;13.60;76.00;;;;;;4991451;28;20049;-82
2021/08/17 08:33:23;;;;;;;7.22;2.67;;;13.60;74.70;;;;;;4990909;28;20032;-83
2021/08/17 08:35:49;;;;;;;5.35;2.70;;;13.70;74.70;;;;;;4989946;28;20092;-83
2021/08/17 08:38:14;;;;;;;4.00;2.53;;;13.80;74.50;;;;;;4987022;28;20026;-83
2021/08/17 08:40:44;;;;;;;3.90;2.40;;;13.90;75.40;;;;;;4984885;28;20050;-83
2021/08/17 08:43:11;;;;;;;4.43;2.63;;;13.90;74.20;;;;;;4986268;28;20078;-83
2021/08/17 08:45:38;;;;;;;5.93;2.75;;;13.90;74.80;;;;;;4984306;28;20096;-82
2021/08/17 08:48:06;;;;;;;4.95;2.30;;;14.00;73.80;;;;;;4986016;28;20026;-84
2021/08/17 08:50:33;;;;;;;6.38;2.75;;;13.90;72.60;;;;;;4988764;28;21170;-83
2021/08/17 08:52:59;;;;;;;4.32;2.63;;;13.90;75.60;;;;;;4986688;28;20042;-84
2021/08/17 08:55:25;;;;;;;5.28;2.50;;;13.90;75.40;;;;;;4975027;28;20118;-82
2021/08/17 08:57:51;;;;;;;6.30;2.42;;;13.90;73.50;;;;;;4989742;28;20188;-84
2021/08/17 09:00:17;;;;;;;6.88;2.88;;;13.90;75.60;;;;;;4990207;28;20043;-83
2021/08/17 09:02:44;;;;;;;4.85;2.42;;;13.90;75.50;;;;;;4971027;28;21686;-82
2021/08/17 09:05:10;;;;;;;4.78;1.92;;;13.90;75.40;;;;;;4990289;28;20028;-82
2021/08/17 09:07:39;;;;;;;5.28;3.03;;;13.90;72.00;;;;;;4988705;28;20027;-83
2021/08/17 09:10:26;;;;;;;6.30;3.00;;;14.00;74.90;;;;;;4973298;28;20038;-83
2021/08/17 09:12:59;;;;;;;5.90;2.47;;;14.10;74.80;;;;;;4984783;28;20402;-82
2021/08/17 09:15:32;;;;;;;7.15;2.85;;;14.30;76.30;;;;;;4990095;28;20069;-83
2021/08/17 09:18:10;;;;;;;5.85;3.10;;;14.30;72.50;;;;;;4972785;28;20066;-83
2021/08/17 09:20:43;;;;;;;5.55;2.70;;;14.40;71.50;;;;;;4974464;28;20026;-83
2021/08/17 09:23:20;;;;;;;6.70;3.53;;;14.50;70.90;;;;;;4973401;28;22091;-84
2021/08/17 09:25:46;;;;;;;5.10;2.85;;;14.40;70.80;;;;;;4990519;28;20069;-84
2021/08/17 09:28:32;;;;;;;6.70;3.15;;;14.20;70.70;;;;;;4989547;28;20446;-84
2021/08/17 09:31:00;;;;;;;6.85;3.05;;;14.20;72.60;;;;;;4968576;28;20061;-83
2021/08/17 09:33:35;;;;;;;5.10;2.70;;;14.50;75.50;;;;;;5002264;28;20037;-83
2021/08/17 09:36:03;;;;;;;5.93;2.75;;;14.60;70.80;;;;;;5004572;28;20034;-83
2021/08/17 09:38:31;;;;;;;4.83;2.67;;;14.70;72.10;;;;;;4984612;28;20027;-84
2021/08/17 09:40:58;;;;;;;4.28;2.80;;;14.80;71.00;;;;;;4973467;28;20288;-83
2021/08/17 09:43:25;;;;;;;5.75;2.65;;;14.80;69.30;;;;;;4992077;28;20132;-83
2021/08/17 09:45:52;;;;;;;6.47;3.08;;;14.70;70.70;;;;;;4975304;28;20030;-83
2021/08/17 09:48:28;;;;;;;5.28;2.85;;;14.60;70.30;;;;;;4970950;28;20026;-83
2021/08/17 09:50:54;;;;;;;4.20;2.88;;;14.80;72.60;;;;;;4989427;28;20509;-83
2021/08/17 09:53:21;;;;;;;6.72;2.97;;;15.00;72.30;;;;;;4990127;28;20118;-83
2021/08/17 09:55:55;;;;;;;5.00;2.72;;;15.20;71.10;;;;;;4979805;28;20033;-83
2021/08/17 09:58:27;;;;;;;8.23;2.90;;;15.30;71.80;;;;;;4992695;28;20544;-84
2021/08/17 10:00:55;;;;;;;5.18;2.65;;;15.20;66.60;;;;;;4990932;28;20104;-84
2021/08/17 10:03:25;;;;;;;6.70;2.95;;;15.00;67.00;;;;;;4989387;28;20023;-85
2021/08/17 10:05:52;;;;;;;5.30;2.90;;;15.10;71.50;;;;;;4980720;28;20368;-84
2021/08/17 10:08:20;;;;;;;7.05;3.13;;;15.10;69.70;;;;;;4988912;28;20050;-83
2021/08/17 10:10:48;;;;;;;5.18;2.47;;;15.20;68.30;;;;;;4969443;28;20499;-85
2021/08/17 10:13:16;;;;;;;4.55;2.75;;;15.20;66.30;;;;;;4972247;28;20026;-84
2021/08/17 10:15:43;;;;;;;6.00;2.78;;;15.20;69.40;;;;;;4987921;28;20079;-84
2021/08/17 10:18:10;;;;;;;5.70;3.03;;;15.20;67.20;;;;;;4989116;28;20025;-85
2021/08/17 10:20:43;;;;;;;5.95;2.60;;;15.20;65.40;;;;;;4983519;28;20494;-84
2021/08/17 10:23:16;;;;;;;6.57;2.95;;;15.50;68.50;;;;;;4981910;28;20034;-83
2021/08/17 10:25:47;;;;;;;5.45;2.35;;;15.60;69.40;;;;;;4987917;28;20026;-84
2021/08/17 10:28:36;;;;;;;5.50;3.15;;;15.60;68.50;;;;;;4958114;28;20404;-83
2021/08/17 10:31:14;;;;;;;5.57;2.78;;;15.50;65.20;;;;;;5002032;28;20122;-84
2021/08/17 10:33:52;;;;;;;5.60;2.75;;;15.50;68.40;;;;;;4972409;28;20033;-85
2021/08/17 10:36:42;;;;;;;4.18;2.80;;;15.50;64.50;;;;;;5000944;28;20031;-84
2021/08/17 10:39:16;;;;;;;4.65;2.67;;;15.70;68.00;;;;;;4988379;28;20491;-85
2021/08/17 10:41:43;;;;;;;6.53;3.38;;;15.70;65.70;;;;;;5003939;28;20058;-86
2021/08/17 10:44:12;;;;;;;5.93;2.75;;;15.70;67.00;;;;;;5001344;28;20443;-86
2021/08/17 10:46:39;;;;;;;8.13;2.80;;;15.70;66.00;;;;;;4965523;28;20468;-85
2021/08/17 10:49:22;;;;;;;4.32;2.55;;;15.80;66.90;;;;;;4969873;28;20349;-85
2021/08/17 10:51:51;;;;;;;6.30;2.55;;;15.90;69.80;;;;;;4976697;28;20042;-86
2021/08/17 10:54:17;;;;;;;5.63;2.95;;;15.90;64.80;;;;;;4971419;28;20088;-85
2021/08/17 10:56:44;;;;;;;7.97;3.00;;;15.80;66.40;;;;;;4971650;28;20030;-87
2021/08/17 10:59:10;;;;;;;6.03;2.70;;;15.80;68.00;;;;;;4986231;28;20061;-84
2021/08/17 11:01:45;;;;;;;6.00;3.00;;;15.80;64.10;;;;;;4971059;28;20062;-85
2021/08/17 11:04:12;;;;;;;6.63;3.00;;;15.70;65.00;;;;;;4970016;28;20647;-86
2021/08/17 11:06:40;;;;;;;4.65;2.30;;;15.70;65.60;;;;;;4968661;28;20033;-85
2021/08/17 11:09:17;;;;;;;5.38;2.92;;;15.80;67.10;;;;;;4980883;28;20130;-85
2021/08/17 11:12:04;;;;;;;5.30;3.00;;;16.00;69.40;;;;;;4987618;28;20034;-86
2021/08/17 11:14:31;;;;;;;7.13;2.90;;;16.00;65.60;;;;;;4986205;28;20031;-84
2021/08/17 11:17:06;;;;;;;5.03;2.40;;;16.00;65.80;;;;;;4991308;28;20031;-85
2021/08/17 11:19:48;;;;;;;5.32;2.97;;;16.00;63.30;;;;;;4982597;28;20278;-85
2021/08/17 11:22:17;;;;;;;5.30;2.95;;;16.00;69.00;;;;;;4989882;28;20034;-86
2021/08/17 11:24:48;;;;;;;7.35;3.08;;;16.00;64.90;;;;;;4985815;28;20050;-86
2021/08/17 11:27:26;;;;;;;5.57;3.03;;;15.90;66.10;;;;;;4988427;28;20113;-84
2021/08/17 11:30:05;;;;;;;5.45;3.20;;;15.90;68.20;;;;;;4991569;28;20495;-85
2021/08/17 11:32:48;;;;;;;5.68;3.13;;;15.90;65.20;;;;;;4989742;28;20797;-84
2021/08/17 11:35:16;;;;;;;4.97;2.80;;;15.90;66.60;;;;;;5001288;28;20037;-84
2021/08/17 11:37:45;;;;;;;6.25;3.22;;;16.00;67.40;;;;;;4987652;28;20080;-84
2021/08/17 11:40:14;;;;;;;6.10;2.95;;;16.00;66.80;;;;;;4998765;28;20046;-84
2021/08/17 11:42:42;;;;;;;5.85;3.20;;;16.10;67.30;;;;;;4988428;28;20030;-85
2021/08/17 11:45:08;;;;;;;5.28;2.75;;;16.10;66.80;;;;;;4990369;28;20030;-85
2021/08/17 11:47:34;;;;;;;6.45;3.38;;;16.20;66.70;;;;;;4971990;28;20125;-85
2021/08/17 11:50:03;;;;;;;5.18;3.63;;;16.30;68.20;;;;;;4985973;28;20479;-84
2021/08/17 11:52:37;;;;;;;6.45;3.47;;;16.30;66.40;;;;;;4985181;28;20027;-84
2021/08/17 11:55:23;;;;;;;6.53;3.20;;;16.40;67.50;;;;;;4986178;28;20113;-84
2021/08/17 11:57:51;;;;;;;10.05;3.85;;;16.40;68.10;;;;;;4988897;28;20026;-86
2021/08/17 12:00:21;;;;;;;;;;;16.50;66.00;;;;;;4983098;28;20043;-85
2021/08/17 12:03:08;;;;;;;7.22;3.42;;;16.60;67.90;;;;;;4983363;28;19925;-84
2021/08/17 12:05:37;;;;;;;6.77;3.03;;;16.70;65.00;;;;;;4983562;28;20035;-87
2021/08/17 12:08:05;;;;;;;6.47;2.78;;;16.70;63.70;;;;;;4969443;28;20034;-85
2021/08/17 12:10:35;;;;;;;;;;;16.60;64.00;;;;;;4985939;28;20062;-85
2021/08/17 12:13:05;;;;;;;7.07;2.83;;;16.50;66.00;;;;;;4967808;28;20204;-84
2021/08/17 12:15:42;;;;;;;5.18;3.08;;;16.60;65.10;;;;;;4970154;28;20039;-85
2021/08/17 12:18:08;;;;;;;3.55;2.47;;;16.60;64.20;;;;;;4968536;28;20026;-85
2021/08/17 12:20:54;;;;;;;5.20;2.83;;;16.70;64.10;;;;;;4969381;28;20039;-84
2021/08/17 12:23:43;;;;;;;5.82;3.88;;;16.80;67.50;;;;;;4967455;28;20092;-87
2021/08/17 12:26:16;;;;;;;5.40;3.00;;;16.80;66.00;;;;;;4988715;28;20041;-84
2021/08/17 12:28:44;;;;;;;5.55;3.22;;;16.60;64.00;;;;;;4971762;28;20031;-84
2021/08/17 12:31:25;;;;;;;5.28;2.83;;;16.60;67.20;;;;;;4963610;28;20058;-85
2021/08/17 12:34:06;;;;;;;5.55;2.80;;;16.70;62.90;;;;;;4971569;28;20037;-85
2021/08/17 12:36:41;;;;;;;5.82;3.53;;;16.80;64.00;;;;;;4969814;28;20081;-83
2021/08/17 12:39:12;;;;;;;5.70;3.42;;;16.70;64.10;;;;;;4969875;28;20058;-86
2021/08/17 12:41:52;;;;;;;5.57;3.00;;;16.70;64.70;;;;;;4993448;28;20026;-85
2021/08/17 12:44:29;;;;;;;4.28;3.53;;;16.70;63.90;;;;;;4987079;28;20027;-86
2021/08/17 12:47:19;;;;;;;5.05;2.97;;;16.80;67.10;;;;;;4978151;28;20035;-84
2021/08/17 12:49:47;;;;;;;9.57;3.45;;;16.80;65.50;;;;;;4972622;28;20073;-84
2021/08/17 12:52:28;;;;;;;;;;;16.80;65.40;;;;;;4973717;28;20022;-86